createdAt,value
2019-03-20T00:00:12.867Z,72.47
2019-03-20T00:02:41.731Z,72.39
2019-03-20T00:05:10.693Z,72.36
2019-03-20T00:07:39.631Z,72.40
2019-03-20T00:10:09.598Z,73.05
2019-03-20T00:12:38.924Z,72.21
2019-03-20T00:15:09.377Z,73.29
2019-03-20T00:17:38.404Z,73.75
2019-03-20T00:20:08.564Z,74.00
2019-03-20T00:22:37.473Z,75.13
2019-03-20T00:25:06.577Z,75.24
2019-03-20T00:27:35.598Z,75.13
2019-03-20T00:30:04.831Z,74.12
2019-03-20T00:32:33.843Z,74.32
2019-03-20T00:35:02.818Z,74.48
2019-03-20T00:37:31.850Z,75.59
2019-03-20T00:40:00.772Z,74.85
2019-03-20T00:42:29.643Z,74.80
2019-03-20T00:44:58.614Z,75.00
2019-03-20T00:47:27.622Z,74.82
2019-03-20T00:49:58.111Z,75.20
2019-03-20T00:52:25.562Z,74.06
2019-03-20T00:54:54.532Z,73.85
2019-03-20T00:57:23.467Z,74.78
2019-03-20T00:59:52.395Z,75.13
2019-03-20T01:02:21.545Z,75.01
2019-03-20T01:04:50.461Z,75.65
2019-03-20T01:07:19.415Z,74.12
2019-03-20T01:09:48.403Z,73.59
2019-03-20T01:12:17.800Z,74.87
2019-03-20T01:14:46.308Z,75.33
2019-03-20T01:17:15.317Z,75.30
2019-03-20T01:19:44.309Z,75.46
2019-03-20T01:22:15.130Z,75.65
2019-03-20T01:24:44.030Z,75.21
2019-03-20T01:27:13.018Z,74.01
2019-03-20T01:29:41.977Z,72.95
2019-03-20T01:32:10.984Z,73.89
2019-03-20T01:34:39.984Z,74.19
2019-03-20T01:37:08.964Z,74.32
2019-03-20T01:39:37.959Z,74.26
2019-03-20T01:42:06.957Z,74.16
2019-03-20T01:44:35.969Z,74.47
2019-03-20T01:47:06.855Z,74.23
2019-03-20T01:49:33.883Z,74.51
2019-03-20T01:52:02.842Z,72.99
2019-03-20T01:54:31.880Z,72.31
2019-03-20T01:57:00.862Z,73.25
2019-03-20T01:59:29.801Z,74.25
2019-03-20T02:01:58.847Z,73.71
2019-03-20T02:04:27.792Z,73.54
2019-03-20T02:06:56.861Z,73.78
2019-03-20T02:09:25.781Z,73.57
2019-03-20T02:11:54.797Z,73.76
2019-03-20T02:14:23.765Z,74.00
2019-03-20T02:16:52.761Z,73.98
2019-03-20T02:19:21.749Z,73.88
2019-03-20T02:21:50.783Z,73.83
2019-03-20T02:24:19.743Z,74.12
2019-03-20T02:26:48.794Z,74.26
2019-03-20T02:29:17.727Z,74.16
2019-03-20T02:31:46.722Z,73.96
2019-03-20T02:34:15.755Z,73.88
2019-03-20T02:36:44.746Z,73.61
2019-03-20T02:39:13.702Z,73.85
2019-03-20T02:41:42.705Z,73.71
2019-03-20T02:44:11.658Z,73.61
2019-03-20T02:46:40.679Z,73.70
2019-03-20T02:49:09.704Z,73.68
2019-03-20T02:51:38.693Z,72.33
2019-03-20T02:54:07.761Z,73.21
2019-03-20T02:56:36.747Z,73.57
2019-03-20T02:59:05.610Z,73.71
2019-03-20T03:01:34.580Z,73.41
2019-03-20T03:04:03.657Z,73.13
2019-03-20T03:06:32.555Z,73.49
2019-03-20T03:09:06.165Z,73.54
2019-03-20T03:11:35.194Z,73.46
2019-03-20T03:14:04.117Z,71.87
2019-03-20T03:16:33.108Z,73.06
2019-03-20T03:19:02.213Z,73.21
2019-03-20T03:21:31.150Z,72.95
2019-03-20T03:24:00.165Z,73.03
2019-03-20T03:26:29.198Z,73.18
2019-03-20T03:28:58.278Z,71.89
2019-03-20T03:31:27.123Z,73.05
2019-03-20T03:33:56.081Z,73.02
2019-03-20T03:36:25.069Z,73.28
2019-03-20T03:38:54.067Z,73.51
2019-03-20T03:41:23.055Z,74.09
2019-03-20T03:43:52.025Z,73.57
2019-03-20T03:46:20.996Z,73.53
2019-03-20T03:48:50.099Z,72.44
2019-03-20T03:51:19.013Z,71.57
2019-03-20T03:53:48.026Z,72.80
2019-03-20T03:56:17.037Z,72.80
2019-03-20T03:58:46.092Z,72.68
2019-03-20T04:01:15.031Z,73.07
2019-03-20T04:03:44.052Z,73.22
2019-03-20T04:06:13.043Z,73.27
2019-03-20T04:08:42.013Z,73.38
2019-03-20T04:11:10.966Z,73.38
2019-03-20T04:13:40.212Z,73.76
2019-03-20T04:16:09.266Z,73.34
2019-03-20T04:18:38.254Z,73.56
2019-03-20T04:21:10.478Z,73.87
2019-03-20T04:23:39.417Z,74.16
2019-03-20T04:26:08.423Z,73.90
2019-03-20T04:28:37.438Z,73.92
2019-03-20T04:31:06.485Z,74.16
2019-03-20T04:33:35.405Z,74.46
2019-03-20T04:36:04.490Z,74.27
2019-03-20T04:38:33.432Z,74.33
2019-03-20T04:41:02.504Z,74.92
2019-03-20T04:43:31.452Z,74.74
2019-03-20T04:46:00.473Z,74.79
2019-03-20T04:48:29.497Z,75.18
2019-03-20T04:50:58.492Z,74.99
2019-03-20T04:53:30.169Z,75.22
2019-03-20T04:55:59.119Z,75.08
2019-03-20T04:58:28.111Z,73.83
2019-03-20T05:00:56.998Z,74.45
2019-03-20T05:03:25.924Z,73.30
2019-03-20T05:05:54.936Z,74.50
2019-03-20T05:08:24.005Z,74.65
2019-03-20T05:10:53.071Z,74.68
2019-03-20T05:13:23.658Z,74.24
2019-03-20T05:15:53.899Z,74.50
2019-03-20T05:18:24.599Z,73.51
2019-03-20T05:20:55.262Z,74.36
2019-03-20T05:23:26.071Z,74.42
2019-03-20T05:25:59.174Z,74.35
2019-03-20T05:28:27.031Z,74.13
2019-03-20T05:31:00.193Z,74.32
2019-03-20T05:33:30.365Z,74.56
2019-03-20T05:36:00.799Z,74.62
2019-03-20T05:38:30.938Z,74.53
2019-03-20T05:41:04.293Z,74.36
2019-03-20T05:43:35.108Z,74.92
2019-03-20T05:46:05.385Z,74.58
2019-03-20T05:48:35.929Z,74.72
2019-03-20T05:51:05.863Z,74.32
2019-03-20T05:53:36.538Z,74.79
2019-03-20T05:56:07.037Z,74.67
2019-03-20T05:58:40.229Z,74.75
2019-03-20T06:01:10.428Z,74.97
2019-03-20T06:03:40.886Z,74.59
2019-03-20T06:06:11.468Z,74.61
2019-03-20T06:08:41.868Z,74.46
2019-03-20T06:11:12.297Z,74.81
2019-03-20T06:13:43.238Z,74.51
2019-03-20T06:16:13.862Z,74.87
2019-03-20T06:18:44.705Z,75.19
2019-03-20T06:21:14.378Z,75.04
2019-03-20T06:23:44.595Z,74.93
2019-03-20T06:26:15.101Z,73.68
2019-03-20T06:28:48.728Z,74.89
2019-03-20T06:31:19.491Z,74.75
2019-03-20T06:33:50.408Z,74.36
2019-03-20T06:36:24.185Z,75.07
2019-03-20T06:38:55.128Z,74.83
2019-03-20T06:41:25.863Z,74.83
2019-03-20T06:43:56.705Z,74.97
2019-03-20T06:46:27.411Z,74.86
2019-03-20T06:48:58.321Z,74.98
2019-03-20T06:51:29.234Z,74.93
2019-03-20T06:54:00.343Z,74.30
2019-03-20T06:56:33.074Z,73.88
2019-03-20T06:59:50.953Z,73.98
2019-03-20T07:02:23.443Z,74.04
2019-03-20T07:05:31.580Z,74.08
2019-03-20T07:08:02.444Z,73.36
2019-03-20T07:11:13.184Z,73.09
2019-03-20T07:13:43.793Z,72.99
2019-03-20T07:16:16.559Z,72.84
2019-03-20T07:18:47.162Z,72.91
2019-03-20T07:21:18.750Z,73.40
2019-03-20T07:23:48.454Z,73.28
2019-03-20T07:26:23.346Z,72.88
2019-03-20T07:28:54.843Z,73.32
2019-03-20T07:31:25.755Z,73.36
2019-03-20T07:33:56.358Z,73.80
2019-03-20T07:36:28.370Z,74.50
2019-03-20T07:38:58.777Z,74.78
2019-03-20T07:41:29.721Z,75.00
2019-03-20T07:44:01.896Z,74.96
2019-03-20T07:46:32.931Z,74.54
2019-03-20T07:49:03.917Z,74.45
2019-03-20T07:51:34.742Z,75.02
2019-03-20T07:54:06.185Z,74.71
2019-03-20T07:56:36.720Z,74.05
2019-03-20T07:59:07.268Z,73.87
2019-03-20T08:01:40.991Z,73.98
2019-03-20T08:04:11.374Z,74.05
2019-03-20T08:06:42.328Z,72.89
2019-03-20T08:09:12.581Z,74.14
2019-03-20T08:11:45.665Z,74.37
2019-03-20T08:14:16.203Z,74.15
2019-03-20T08:16:46.571Z,74.59
2019-03-20T08:19:15.870Z,74.54
2019-03-20T08:21:44.967Z,74.75
2019-03-20T08:24:14.069Z,75.16
2019-03-20T08:26:43.570Z,74.92
2019-03-20T08:29:13.009Z,74.86
2019-03-20T08:31:42.187Z,74.96
2019-03-20T08:34:11.243Z,74.81
2019-03-20T08:36:40.279Z,74.81
2019-03-20T08:39:09.420Z,75.75
2019-03-20T08:41:38.792Z,75.32
2019-03-20T08:44:07.960Z,75.77
2019-03-20T08:46:36.921Z,76.91
2019-03-20T08:49:06.055Z,76.64
2019-03-20T08:51:35.642Z,76.61
2019-03-20T08:54:07.589Z,75.97
2019-03-20T08:56:36.600Z,77.05
2019-03-20T08:59:06.850Z,76.56
2019-03-20T09:01:35.842Z,76.56
2019-03-20T09:04:05.147Z,76.98
2019-03-20T09:06:34.240Z,78.11
2019-03-20T09:09:03.874Z,78.50
2019-03-20T09:11:32.882Z,78.27
2019-03-20T09:14:02.234Z,78.12
2019-03-20T09:16:31.261Z,78.02
2019-03-20T09:19:03.709Z,77.60
2019-03-20T09:21:35.095Z,77.53
2019-03-20T09:24:04.277Z,77.18
2019-03-20T09:26:36.515Z,76.52
2019-03-20T09:29:18.250Z,76.02
2019-03-20T09:31:38.101Z,76.09
2019-03-20T09:34:07.284Z,75.53
2019-03-20T09:36:42.991Z,75.84
2019-03-20T09:39:07.921Z,76.32
2019-03-20T09:41:37.102Z,76.07
2019-03-20T09:44:06.239Z,75.72
2019-03-20T09:46:35.285Z,76.25
2019-03-20T09:49:04.663Z,75.55
2019-03-20T09:51:33.991Z,75.71
2019-03-20T09:54:06.093Z,75.87
2019-03-20T09:56:38.426Z,75.92
2019-03-20T09:59:07.921Z,75.81
2019-03-20T10:01:36.947Z,76.13
2019-03-20T10:04:06.100Z,76.47
2019-03-20T10:06:35.089Z,76.47
2019-03-20T10:09:05.143Z,76.95
2019-03-20T10:11:34.666Z,76.81
2019-03-20T10:14:04.556Z,76.94
2019-03-20T10:16:33.733Z,76.91
2019-03-20T10:19:02.782Z,76.53
2019-03-20T10:21:34.439Z,77.33
2019-03-20T10:24:03.505Z,76.98
2019-03-20T10:26:32.503Z,77.25
2019-03-20T10:29:01.525Z,77.37
2019-03-20T10:31:30.605Z,77.42
2019-03-20T10:33:59.736Z,77.65
2019-03-20T10:36:28.914Z,77.06
2019-03-20T10:39:06.304Z,76.69
2019-03-20T10:41:26.863Z,76.06
2019-03-20T10:43:56.338Z,76.34
2019-03-20T10:46:25.815Z,76.29
2019-03-20T10:48:56.358Z,76.82
2019-03-20T10:51:23.777Z,75.98
2019-03-20T10:53:52.811Z,76.50
2019-03-20T10:56:22.232Z,74.60
2019-03-20T10:58:51.236Z,76.70
2019-03-20T11:01:20.375Z,75.65
2019-03-20T11:03:49.447Z,76.24
2019-03-20T11:06:18.487Z,76.34
2019-03-20T11:08:47.542Z,76.52
2019-03-20T11:11:26.536Z,77.19
2019-03-20T11:13:46.054Z,76.71
2019-03-20T11:16:15.091Z,76.92
2019-03-20T11:18:48.617Z,76.76
2019-03-20T11:21:16.955Z,76.31
2019-03-20T11:23:45.995Z,77.05
2019-03-20T11:26:15.148Z,77.04
2019-03-20T11:28:44.141Z,77.46
2019-03-20T11:31:13.619Z,78.02
2019-03-20T11:33:43.487Z,77.89
2019-03-20T11:36:12.634Z,77.47
2019-03-20T11:38:41.918Z,77.28
2019-03-20T11:41:10.989Z,76.73
2019-03-20T11:43:40.095Z,76.97
2019-03-20T11:46:09.363Z,77.36
2019-03-20T11:48:39.549Z,76.95
2019-03-20T11:51:08.961Z,77.11
2019-03-20T11:53:38.054Z,76.87
2019-03-20T11:56:08.051Z,76.73
2019-03-20T11:58:37.986Z,76.49
2019-03-20T12:01:07.118Z,76.09
2019-03-20T12:03:36.200Z,75.75
2019-03-20T12:06:05.429Z,75.95
2019-03-20T12:08:34.440Z,75.81
2019-03-20T12:11:03.565Z,75.45
2019-03-20T12:13:35.466Z,75.36
2019-03-20T12:16:07.083Z,75.76
2019-03-20T12:18:36.156Z,75.98
2019-03-20T12:21:05.548Z,75.12
2019-03-20T12:23:34.960Z,74.75
2019-03-20T12:26:04.144Z,74.71
2019-03-20T12:28:33.109Z,74.15
2019-03-20T12:31:02.484Z,73.84
2019-03-20T12:33:31.566Z,71.96
2019-03-20T12:36:00.600Z,72.87
2019-03-20T12:38:29.876Z,73.52
2019-03-20T12:40:59.569Z,73.36
2019-03-20T12:43:28.614Z,73.33
2019-03-20T12:45:57.951Z,73.75
2019-03-20T12:48:27.255Z,74.04
2019-03-20T12:50:56.376Z,74.27
2019-03-20T12:53:29.191Z,74.06
2019-03-20T12:55:59.343Z,73.99
2019-03-20T12:58:28.320Z,71.63
2019-03-20T13:00:57.279Z,70.85
2019-03-20T13:03:26.741Z,72.33
2019-03-20T13:05:56.600Z,72.61
2019-03-20T13:08:26.053Z,72.16
2019-03-20T13:10:55.433Z,72.34
2019-03-20T13:13:24.431Z,72.45
2019-03-20T13:15:54.199Z,71.32
2019-03-20T13:18:23.151Z,72.98
2019-03-20T13:20:52.228Z,73.07
2019-03-20T13:23:23.633Z,73.54
2019-03-20T13:25:52.679Z,72.74
2019-03-20T13:28:22.583Z,74.30
2019-03-20T13:30:55.257Z,74.83
2019-03-20T13:33:25.904Z,75.21
2019-03-20T13:35:53.729Z,74.84
2019-03-20T13:38:22.828Z,74.84
2019-03-20T13:40:51.848Z,75.27
2019-03-20T13:43:21.056Z,75.56
2019-03-20T13:45:50.210Z,75.54
2019-03-20T13:48:19.433Z,75.42
2019-03-20T13:50:48.540Z,75.43
2019-03-20T13:53:18.816Z,76.00
2019-03-20T13:55:47.863Z,75.50
2019-03-20T13:58:17.310Z,75.75
2019-03-20T14:00:46.530Z,76.07
2019-03-20T14:03:15.965Z,75.95
2019-03-20T14:05:45.101Z,75.80
2019-03-20T14:08:14.052Z,75.44
2019-03-20T14:10:50.331Z,75.47
2019-03-20T14:13:13.531Z,75.33
2019-03-20T14:15:43.639Z,74.89
2019-03-20T14:18:13.474Z,75.14
2019-03-20T14:20:42.941Z,74.87
2019-03-20T14:23:11.989Z,74.89
2019-03-20T14:25:40.966Z,74.74
2019-03-20T14:28:10.048Z,75.00
2019-03-20T14:30:40.193Z,75.17
2019-03-20T14:33:11.039Z,74.42
2019-03-20T14:35:40.439Z,74.92
2019-03-20T14:38:09.835Z,74.83
2019-03-20T14:40:39.252Z,74.66
2019-03-20T14:43:08.461Z,74.51
2019-03-20T14:45:37.374Z,74.16
2019-03-20T14:48:09.255Z,74.23
2019-03-20T14:50:39.035Z,74.11
2019-03-20T14:53:09.030Z,74.09
2019-03-20T14:55:38.169Z,74.23
2019-03-20T14:58:08.181Z,73.71
2019-03-20T15:00:37.317Z,73.01
2019-03-20T15:03:06.641Z,72.73
2019-03-20T15:05:35.813Z,72.51
2019-03-20T15:08:05.433Z,72.71
2019-03-20T15:10:34.503Z,72.60
2019-03-20T15:13:03.733Z,72.65
2019-03-20T15:15:52.987Z,72.63
2019-03-20T15:18:22.495Z,72.99
2019-03-20T15:20:51.539Z,72.68
2019-03-20T15:23:21.485Z,73.33
2019-03-20T15:25:51.414Z,71.78
2019-03-20T15:28:20.576Z,73.16
2019-03-20T15:30:49.895Z,72.85
2019-03-20T15:33:19.166Z,72.68
2019-03-20T15:35:48.372Z,72.84
2019-03-20T15:38:17.652Z,72.47
2019-03-20T15:40:55.945Z,72.73
2019-03-20T15:43:15.877Z,72.78
2019-03-20T15:45:44.956Z,72.39
2019-03-20T15:48:14.021Z,72.45
2019-03-20T15:50:43.532Z,72.60
2019-03-20T15:53:12.626Z,72.39
2019-03-20T15:55:44.398Z,72.47
2019-03-20T15:58:14.240Z,72.55
2019-03-20T16:00:43.629Z,72.51
2019-03-20T16:03:15.059Z,72.55
2019-03-20T16:05:44.112Z,72.14
2019-03-20T16:08:13.943Z,71.79
2019-03-20T16:10:43.010Z,71.90
2019-03-20T16:13:12.090Z,71.90
2019-03-20T16:15:41.623Z,72.24
2019-03-20T16:18:10.758Z,71.85
2019-03-20T16:20:42.064Z,71.45
2019-03-20T16:23:11.973Z,71.67
2019-03-20T16:25:41.165Z,70.92
2019-03-20T16:28:10.415Z,69.85
2019-03-20T16:30:42.396Z,70.86
2019-03-20T16:33:11.474Z,71.47
2019-03-20T16:35:40.477Z,71.91
2019-03-20T16:38:13.799Z,71.93
2019-03-20T16:40:45.728Z,72.27
2019-03-20T16:43:35.377Z,72.30
2019-03-20T16:46:06.524Z,73.02
2019-03-20T16:48:36.619Z,72.91
2019-03-20T16:51:08.656Z,72.95
2019-03-20T16:53:40.970Z,72.79
2019-03-20T16:56:10.203Z,73.10
2019-03-20T16:58:39.492Z,73.20
2019-03-20T17:01:09.123Z,73.17
2019-03-20T17:03:38.772Z,73.41
2019-03-20T17:06:09.218Z,73.75
2019-03-20T17:08:38.224Z,73.87
2019-03-20T17:11:30.447Z,74.25
2019-03-20T17:13:49.655Z,74.08
2019-03-20T17:16:19.483Z,74.45
2019-03-20T17:18:48.497Z,74.16
2019-03-20T17:21:17.952Z,74.64
2019-03-20T17:23:47.025Z,74.53
2019-03-20T17:26:16.946Z,74.84
2019-03-20T17:28:46.741Z,75.21
2019-03-20T17:31:15.850Z,75.36
2019-03-20T17:33:47.219Z,75.14
2019-03-20T17:36:16.219Z,75.11
2019-03-20T17:38:45.310Z,75.20
2019-03-20T17:41:14.507Z,75.34
2019-03-20T17:43:43.835Z,75.27
2019-03-20T17:46:12.875Z,75.11
2019-03-20T17:48:42.293Z,75.14
2019-03-20T17:51:13.538Z,75.62
2019-03-20T17:53:44.759Z,75.87
2019-03-20T17:56:13.788Z,76.42
2019-03-20T17:58:43.458Z,76.34
2019-03-20T18:01:12.487Z,77.61
2019-03-20T18:03:41.562Z,77.84
2019-03-20T18:06:11.474Z,78.12
2019-03-20T18:08:40.590Z,78.26
2019-03-20T18:11:09.580Z,78.46
2019-03-20T18:13:38.645Z,78.57
2019-03-20T18:16:08.111Z,78.92
2019-03-20T18:18:37.676Z,79.44
2019-03-20T18:21:06.793Z,79.69
2019-03-20T18:23:38.869Z,79.87
2019-03-20T18:26:08.413Z,80.08
2019-03-20T18:28:38.188Z,80.23
2019-03-20T18:31:08.773Z,80.04
2019-03-20T18:33:37.725Z,79.78
2019-03-20T18:36:07.155Z,79.83
2019-03-20T18:38:37.332Z,80.00
2019-03-20T18:41:06.530Z,80.05
2019-03-20T18:43:35.504Z,80.06
2019-03-20T18:46:04.968Z,79.97
2019-03-20T18:48:36.143Z,79.91
2019-03-20T18:51:04.334Z,79.46
2019-03-20T18:53:33.717Z,79.53
2019-03-20T18:56:02.746Z,79.35
2019-03-20T18:58:32.225Z,79.54
2019-03-20T19:01:02.168Z,79.23
2019-03-20T19:03:31.553Z,77.55
2019-03-20T19:06:04.055Z,78.80
2019-03-20T19:08:33.127Z,78.78
2019-03-20T19:11:05.017Z,78.59
2019-03-20T19:13:34.104Z,78.69
2019-03-20T19:16:03.511Z,78.58
2019-03-20T19:18:32.862Z,78.77
2019-03-20T19:21:02.005Z,79.06
2019-03-20T19:23:31.079Z,79.03
2019-03-20T19:26:00.176Z,79.05
2019-03-20T19:28:30.943Z,79.07
2019-03-20T19:31:00.295Z,77.54
2019-03-20T19:33:30.238Z,78.52
2019-03-20T19:36:00.316Z,78.79
2019-03-20T19:38:34.990Z,78.85
2019-03-20T19:40:59.045Z,78.83
2019-03-20T19:43:28.827Z,78.62
2019-03-20T19:45:59.397Z,78.54
2019-03-20T19:48:29.769Z,78.37
2019-03-20T19:50:59.044Z,78.38
2019-03-20T19:53:30.842Z,78.54
2019-03-20T19:56:00.281Z,78.44
2019-03-20T19:58:30.335Z,78.58
2019-03-20T20:00:59.686Z,78.45
2019-03-20T20:03:28.709Z,78.33
2019-03-20T20:05:59.009Z,78.39
2019-03-20T20:08:30.371Z,78.34
2019-03-20T20:10:59.390Z,78.50
2019-03-20T20:13:29.859Z,78.71
2019-03-20T20:15:59.231Z,78.43
2019-03-20T20:18:28.393Z,78.51
2019-03-20T20:20:59.485Z,78.78
2019-03-20T20:23:29.779Z,78.63
2019-03-20T20:26:00.997Z,78.79
2019-03-20T20:28:31.022Z,78.75
2019-03-20T20:31:01.393Z,78.60
2019-03-20T20:33:30.454Z,78.69
2019-03-20T20:35:59.925Z,78.09
2019-03-20T20:38:28.924Z,79.02
2019-03-20T20:40:58.229Z,79.10
2019-03-20T20:43:28.064Z,79.63
2019-03-20T20:45:59.925Z,78.45
2019-03-20T20:48:29.258Z,79.58
2019-03-20T20:50:58.305Z,79.74
2019-03-20T20:53:28.502Z,79.95
2019-03-20T20:55:59.367Z,80.10
2019-03-20T20:58:28.452Z,80.08
2019-03-20T21:01:15.181Z,80.40
2019-03-20T21:03:44.687Z,80.53
2019-03-20T21:06:14.085Z,80.49
2019-03-20T21:08:43.900Z,80.86
2019-03-20T21:11:13.329Z,80.71
2019-03-20T21:13:45.435Z,81.00
2019-03-20T21:16:15.632Z,81.10
2019-03-20T21:19:24.952Z,81.18
2019-03-20T21:22:35.578Z,81.65
2019-03-20T21:25:05.847Z,82.07
2019-03-20T21:28:29.734Z,81.95
2019-03-20T21:31:17.012Z,82.14
2019-03-20T21:34:31.766Z,82.41
2019-03-20T21:37:41.526Z,82.22
2019-03-20T21:40:13.557Z,82.32
2019-03-20T21:43:20.057Z,82.39
2019-03-20T21:46:34.693Z,82.65
2019-03-20T21:49:04.886Z,82.99
2019-03-20T21:51:35.374Z,82.92
2019-03-20T21:54:44.231Z,82.93
2019-03-20T21:57:35.733Z,82.86
2019-03-20T22:00:45.377Z,83.51
2019-03-20T22:03:15.982Z,84.19
2019-03-20T22:06:27.391Z,84.66
2019-03-20T22:08:58.062Z,84.82
2019-03-20T22:12:12.892Z,84.46
2019-03-20T22:14:44.908Z,85.03
2019-03-20T22:17:51.127Z,84.85
2019-03-20T22:20:35.399Z,85.07
2019-03-20T22:24:03.928Z,84.70
2019-03-20T22:27:10.466Z,84.64
2019-03-20T22:29:40.553Z,84.81
2019-03-20T22:32:50.188Z,84.99
2019-03-20T22:35:44.489Z,85.20
2019-03-20T22:38:27.128Z,84.97
2019-03-20T22:41:24.815Z,84.69
2019-03-20T22:44:01.924Z,84.91
2019-03-20T22:47:15.905Z,85.10
2019-03-20T22:50:32.176Z,85.15
2019-03-20T22:53:27.753Z,83.81
2019-03-20T22:56:35.801Z,85.16
2019-03-20T22:59:06.235Z,85.40
2019-03-20T23:01:53.846Z,85.27
2019-03-20T23:04:33.569Z,85.01
2019-03-20T23:07:03.719Z,84.72
2019-03-20T23:09:33.810Z,84.39
2019-03-20T23:12:06.772Z,84.52
2019-03-20T23:14:36.896Z,84.62
2019-03-20T23:17:07.097Z,84.80
2019-03-20T23:19:38.047Z,85.01
2019-03-20T23:22:08.457Z,82.56
2019-03-20T23:24:38.623Z,82.48
2019-03-20T23:27:11.899Z,81.81
2019-03-20T23:29:44.669Z,83.37
2019-03-20T23:32:14.771Z,83.61
2019-03-20T23:34:44.879Z,83.65
2019-03-20T23:37:14.970Z,83.77
2019-03-20T23:39:45.068Z,84.02
2019-03-20T23:42:15.169Z,83.83
2019-03-20T23:44:45.271Z,83.91
2019-03-20T23:47:15.346Z,81.43
2019-03-20T23:49:45.789Z,82.90
2019-03-20T23:52:15.910Z,83.12
2019-03-20T23:54:48.601Z,83.26
2019-03-20T23:57:19.259Z,82.98
2019-03-20T23:59:50.144Z,82.67
